sensor_id;sensor_type;location;lat;lon;timestamp;P1;durP1;ratioP1;P2;durP2;ratioP2
54263;SDS011;40178;53.042;6.406;2023-01-24T00:00:56;17.85;;;8.80;;
54263;SDS011;40178;53.042;6.406;2023-01-24T00:03:22;18.90;;;9.77;;
54263;SDS011;40178;53.042;6.406;2023-01-24T00:05:48;17.92;;;9.30;;
54263;SDS011;40178;53.042;6.406;2023-01-24T00:08:15;16.90;;;8.70;;
54263;SDS011;40178;53.042;6.406;2023-01-24T00:10:45;18.10;;;9.70;;
54263;SDS011;40178;53.042;6.406;2023-01-24T00:13:12;18.00;;;8.75;;
54263;SDS011;40178;53.042;6.406;2023-01-24T00:15:38;18.02;;;9.05;;
54263;SDS011;40178;53.042;6.406;2023-01-24T00:18:04;19.42;;;9.63;;
54263;SDS011;40178;53.042;6.406;2023-01-24T00:20:30;17.70;;;8.65;;
54263;SDS011;40178;53.042;6.406;2023-01-24T00:22:55;20.88;;;9.82;;
54263;SDS011;40178;53.042;6.406;2023-01-24T00:25:21;19.38;;;10.25;;
54263;SDS011;40178;53.042;6.406;2023-01-24T00:27:47;20.95;;;10.15;;
54263;SDS011;40178;53.042;6.406;2023-01-24T00:30:12;18.20;;;10.63;;
54263;SDS011;40178;53.042;6.406;2023-01-24T00:32:38;23.15;;;10.48;;
54263;SDS011;40178;53.042;6.406;2023-01-24T00:35:04;19.98;;;10.25;;
54263;SDS011;40178;53.042;6.406;2023-01-24T00:37:30;20.40;;;10.40;;
54263;SDS011;40178;53.042;6.406;2023-01-24T00:39:55;23.80;;;11.85;;
54263;SDS011;40178;53.042;6.406;2023-01-24T00:42:21;25.15;;;10.88;;
54263;SDS011;40178;53.042;6.406;2023-01-24T00:44:46;19.90;;;9.75;;
54263;SDS011;40178;53.042;6.406;2023-01-24T00:47:12;21.33;;;9.90;;
54263;SDS011;40178;53.042;6.406;2023-01-24T00:49:38;24.38;;;10.70;;
54263;SDS011;40178;53.042;6.406;2023-01-24T00:52:03;23.52;;;11.68;;
54263;SDS011;40178;53.042;6.406;2023-01-24T00:54:29;23.05;;;11.05;;
54263;SDS011;40178;53.042;6.406;2023-01-24T00:56:54;22.75;;;10.95;;
54263;SDS011;40178;53.042;6.406;2023-01-24T00:59:20;21.65;;;11.02;;
54263;SDS011;40178;53.042;6.406;2023-01-24T01:01:46;19.40;;;10.32;;
54263;SDS011;40178;53.042;6.406;2023-01-24T01:04:11;22.90;;;11.00;;
54263;SDS011;40178;53.042;6.406;2023-01-24T01:06:37;24.08;;;11.30;;
54263;SDS011;40178;53.042;6.406;2023-01-24T01:09:02;24.67;;;11.18;;
54263;SDS011;40178;53.042;6.406;2023-01-24T01:11:28;22.77;;;10.93;;
54263;SDS011;40178;53.042;6.406;2023-01-24T01:13:54;27.08;;;11.38;;
54263;SDS011;40178;53.042;6.406;2023-01-24T01:16:21;22.25;;;10.75;;
54263;SDS011;40178;53.042;6.406;2023-01-24T01:18:47;22.80;;;11.63;;
54263;SDS011;40178;53.042;6.406;2023-01-24T01:21:15;22.60;;;11.25;;
54263;SDS011;40178;53.042;6.406;2023-01-24T01:23:42;21.98;;;11.20;;
54263;SDS011;40178;53.042;6.406;2023-01-24T01:26:13;23.35;;;10.80;;
54263;SDS011;40178;53.042;6.406;2023-01-24T01:28:44;21.27;;;10.68;;
54263;SDS011;40178;53.042;6.406;2023-01-24T01:31:10;24.85;;;11.80;;
54263;SDS011;40178;53.042;6.406;2023-01-24T01:33:36;20.23;;;10.65;;
54263;SDS011;40178;53.042;6.406;2023-01-24T01:36:02;21.40;;;10.82;;
54263;SDS011;40178;53.042;6.406;2023-01-24T01:38:29;24.63;;;11.77;;
54263;SDS011;40178;53.042;6.406;2023-01-24T01:40:55;24.10;;;12.20;;
54263;SDS011;40178;53.042;6.406;2023-01-24T01:43:22;25.30;;;11.70;;
54263;SDS011;40178;53.042;6.406;2023-01-24T01:45:53;24.10;;;11.90;;
54263;SDS011;40178;53.042;6.406;2023-01-24T01:48:38;22.88;;;11.35;;
54263;SDS011;40178;53.042;6.406;2023-01-24T01:51:13;22.85;;;11.02;;
54263;SDS011;40178;53.042;6.406;2023-01-24T01:53:41;22.90;;;11.90;;
54263;SDS011;40178;53.042;6.406;2023-01-24T01:58:59;24.70;;;11.73;;
54263;SDS011;40178;53.042;6.406;2023-01-24T02:01:34;22.38;;;10.95;;
54263;SDS011;40178;53.042;6.406;2023-01-24T02:04:05;23.60;;;11.57;;
54263;SDS011;40178;53.042;6.406;2023-01-24T02:06:43;25.85;;;13.60;;
54263;SDS011;40178;53.042;6.406;2023-01-24T02:09:11;24.00;;;11.15;;
54263;SDS011;40178;53.042;6.406;2023-01-24T02:11:39;24.70;;;12.05;;
54263;SDS011;40178;53.042;6.406;2023-01-24T02:14:06;26.33;;;12.80;;
54263;SDS011;40178;53.042;6.406;2023-01-24T02:16:53;25.50;;;12.88;;
54263;SDS011;40178;53.042;6.406;2023-01-24T02:22:16;24.08;;;11.85;;
54263;SDS011;40178;53.042;6.406;2023-01-24T02:27:41;23.48;;;11.98;;
54263;SDS011;40178;53.042;6.406;2023-01-24T02:30:07;28.60;;;12.48;;
54263;SDS011;40178;53.042;6.406;2023-01-24T02:32:33;24.98;;;11.73;;
54263;SDS011;40178;53.042;6.406;2023-01-24T02:34:59;23.17;;;11.13;;
54263;SDS011;40178;53.042;6.406;2023-01-24T02:37:24;25.92;;;12.70;;
54263;SDS011;40178;53.042;6.406;2023-01-24T02:42:30;25.83;;;11.75;;
54263;SDS011;40178;53.042;6.406;2023-01-24T02:45:02;25.73;;;12.05;;
54263;SDS011;40178;53.042;6.406;2023-01-24T02:47:43;26.63;;;12.25;;
54263;SDS011;40178;53.042;6.406;2023-01-24T02:50:11;22.48;;;12.82;;
54263;SDS011;40178;53.042;6.406;2023-01-24T02:52:37;26.17;;;13.27;;
54263;SDS011;40178;53.042;6.406;2023-01-24T02:55:22;24.90;;;12.68;;
54263;SDS011;40178;53.042;6.406;2023-01-24T02:57:48;22.27;;;11.20;;
54263;SDS011;40178;53.042;6.406;2023-01-24T03:00:39;24.02;;;11.10;;
54263;SDS011;40178;53.042;6.406;2023-01-24T03:03:06;26.17;;;12.27;;
54263;SDS011;40178;53.042;6.406;2023-01-24T03:05:33;22.33;;;11.25;;
54263;SDS011;40178;53.042;6.406;2023-01-24T03:08:21;22.48;;;11.43;;
54263;SDS011;40178;53.042;6.406;2023-01-24T03:10:47;27.58;;;12.77;;
54263;SDS011;40178;53.042;6.406;2023-01-24T03:13:13;22.75;;;11.30;;
54263;SDS011;40178;53.042;6.406;2023-01-24T03:16:01;24.05;;;10.48;;
54263;SDS011;40178;53.042;6.406;2023-01-24T03:18:45;19.65;;;10.68;;
54263;SDS011;40178;53.042;6.406;2023-01-24T03:21:30;20.02;;;11.18;;
54263;SDS011;40178;53.042;6.406;2023-01-24T03:24:14;23.42;;;12.43;;
54263;SDS011;40178;53.042;6.406;2023-01-24T03:26:58;21.83;;;11.13;;
54263;SDS011;40178;53.042;6.406;2023-01-24T03:29:43;26.52;;;12.48;;
54263;SDS011;40178;53.042;6.406;2023-01-24T03:32:27;24.27;;;11.10;;
54263;SDS011;40178;53.042;6.406;2023-01-24T03:35:11;25.35;;;10.93;;
54263;SDS011;40178;53.042;6.406;2023-01-24T03:37:37;24.73;;;12.15;;
54263;SDS011;40178;53.042;6.406;2023-01-24T03:40:21;25.85;;;11.68;;
54263;SDS011;40178;53.042;6.406;2023-01-24T03:42:47;21.63;;;10.77;;
54263;SDS011;40178;53.042;6.406;2023-01-24T03:47:46;23.52;;;12.05;;
54263;SDS011;40178;53.042;6.406;2023-01-24T03:50:36;20.98;;;10.63;;
54263;SDS011;40178;53.042;6.406;2023-01-24T03:53:22;20.13;;;10.50;;
54263;SDS011;40178;53.042;6.406;2023-01-24T03:55:54;23.52;;;11.02;;
54263;SDS011;40178;53.042;6.406;2023-01-24T03:58:25;20.45;;;9.60;;
54263;SDS011;40178;53.042;6.406;2023-01-24T04:00:52;19.88;;;10.73;;
54263;SDS011;40178;53.042;6.406;2023-01-24T04:03:18;19.27;;;9.90;;
54263;SDS011;40178;53.042;6.406;2023-01-24T04:05:48;21.40;;;10.25;;
54263;SDS011;40178;53.042;6.406;2023-01-24T04:08:14;21.95;;;10.52;;
54263;SDS011;40178;53.042;6.406;2023-01-24T04:10:41;18.10;;;10.57;;
54263;SDS011;40178;53.042;6.406;2023-01-24T04:13:07;20.25;;;9.90;;
54263;SDS011;40178;53.042;6.406;2023-01-24T04:15:34;18.67;;;9.68;;
54263;SDS011;40178;53.042;6.406;2023-01-24T04:18:00;18.67;;;9.43;;
54263;SDS011;40178;53.042;6.406;2023-01-24T04:20:28;21.15;;;10.30;;
54263;SDS011;40178;53.042;6.406;2023-01-24T04:22:55;18.52;;;9.60;;
54263;SDS011;40178;53.042;6.406;2023-01-24T04:25:21;21.52;;;10.73;;
54263;SDS011;40178;53.042;6.406;2023-01-24T04:27:47;20.23;;;9.82;;
54263;SDS011;40178;53.042;6.406;2023-01-24T04:30:13;19.88;;;10.55;;
54263;SDS011;40178;53.042;6.406;2023-01-24T04:32:41;17.30;;;9.00;;
54263;SDS011;40178;53.042;6.406;2023-01-24T04:35:07;20.77;;;10.32;;
54263;SDS011;40178;53.042;6.406;2023-01-24T04:37:34;18.55;;;9.75;;
54263;SDS011;40178;53.042;6.406;2023-01-24T04:39:59;19.90;;;9.90;;
54263;SDS011;40178;53.042;6.406;2023-01-24T04:42:28;20.75;;;9.80;;
54263;SDS011;40178;53.042;6.406;2023-01-24T04:44:53;19.08;;;9.75;;
54263;SDS011;40178;53.042;6.406;2023-01-24T04:47:19;19.50;;;10.02;;
54263;SDS011;40178;53.042;6.406;2023-01-24T04:49:44;19.85;;;10.05;;
54263;SDS011;40178;53.042;6.406;2023-01-24T04:52:10;22.70;;;11.38;;
54263;SDS011;40178;53.042;6.406;2023-01-24T04:54:38;18.17;;;10.45;;
54263;SDS011;40178;53.042;6.406;2023-01-24T04:57:04;23.05;;;11.57;;
54263;SDS011;40178;53.042;6.406;2023-01-24T04:59:30;21.33;;;10.63;;
54263;SDS011;40178;53.042;6.406;2023-01-24T05:01:55;21.17;;;11.43;;
54263;SDS011;40178;53.042;6.406;2023-01-24T05:04:21;23.45;;;11.35;;
54263;SDS011;40178;53.042;6.406;2023-01-24T05:06:47;20.52;;;10.65;;
54263;SDS011;40178;53.042;6.406;2023-01-24T05:09:12;21.67;;;10.77;;
54263;SDS011;40178;53.042;6.406;2023-01-24T05:11:38;21.88;;;11.40;;
54263;SDS011;40178;53.042;6.406;2023-01-24T05:14:04;21.15;;;11.27;;
54263;SDS011;40178;53.042;6.406;2023-01-24T05:16:31;21.63;;;11.50;;
54263;SDS011;40178;53.042;6.406;2023-01-24T05:18:57;21.02;;;11.07;;
54263;SDS011;40178;53.042;6.406;2023-01-24T05:21:22;22.52;;;11.88;;
54263;SDS011;40178;53.042;6.406;2023-01-24T05:23:49;19.45;;;10.82;;
54263;SDS011;40178;53.042;6.406;2023-01-24T05:26:18;21.58;;;11.35;;
54263;SDS011;40178;53.042;6.406;2023-01-24T05:28:44;20.67;;;10.85;;
54263;SDS011;40178;53.042;6.406;2023-01-24T05:31:10;20.85;;;10.57;;
54263;SDS011;40178;53.042;6.406;2023-01-24T05:33:36;20.17;;;10.35;;
54263;SDS011;40178;53.042;6.406;2023-01-24T05:36:03;21.27;;;11.13;;
54263;SDS011;40178;53.042;6.406;2023-01-24T05:38:30;21.75;;;10.98;;
54263;SDS011;40178;53.042;6.406;2023-01-24T05:41:00;24.10;;;10.82;;
54263;SDS011;40178;53.042;6.406;2023-01-24T05:43:36;20.27;;;10.15;;
54263;SDS011;40178;53.042;6.406;2023-01-24T05:48:33;24.42;;;10.88;;
54263;SDS011;40178;53.042;6.406;2023-01-24T05:51:06;27.17;;;12.18;;
54263;SDS011;40178;53.042;6.406;2023-01-24T05:53:34;23.20;;;10.95;;
54263;SDS011;40178;53.042;6.406;2023-01-24T05:56:06;24.42;;;11.10;;
54263;SDS011;40178;53.042;6.406;2023-01-24T05:58:34;21.77;;;10.88;;
54263;SDS011;40178;53.042;6.406;2023-01-24T06:01:01;21.73;;;11.23;;
54263;SDS011;40178;53.042;6.406;2023-01-24T06:03:41;22.40;;;11.20;;
54263;SDS011;40178;53.042;6.406;2023-01-24T06:06:09;22.92;;;10.93;;
54263;SDS011;40178;53.042;6.406;2023-01-24T06:08:36;21.38;;;10.52;;
54263;SDS011;40178;53.042;6.406;2023-01-24T06:11:06;22.05;;;11.13;;
54263;SDS011;40178;53.042;6.406;2023-01-24T06:13:35;23.65;;;11.55;;
54263;SDS011;40178;53.042;6.406;2023-01-24T06:16:04;23.63;;;11.25;;
54263;SDS011;40178;53.042;6.406;2023-01-24T06:18:32;22.50;;;11.32;;
54263;SDS011;40178;53.042;6.406;2023-01-24T06:21:03;22.67;;;10.90;;
54263;SDS011;40178;53.042;6.406;2023-01-24T06:23:51;24.42;;;11.32;;
54263;SDS011;40178;53.042;6.406;2023-01-24T06:26:17;21.20;;;11.23;;
54263;SDS011;40178;53.042;6.406;2023-01-24T06:28:42;19.77;;;9.98;;
54263;SDS011;40178;53.042;6.406;2023-01-24T06:39:20;19.25;;;10.95;;
54263;SDS011;40178;53.042;6.406;2023-01-24T06:41:46;20.13;;;9.98;;
54263;SDS011;40178;53.042;6.406;2023-01-24T06:44:12;18.40;;;9.35;;
54263;SDS011;40178;53.042;6.406;2023-01-24T06:46:38;19.80;;;9.35;;
54263;SDS011;40178;53.042;6.406;2023-01-24T06:49:04;22.15;;;9.80;;
54263;SDS011;40178;53.042;6.406;2023-01-24T06:51:30;21.33;;;9.18;;
54263;SDS011;40178;53.042;6.406;2023-01-24T06:53:55;17.73;;;8.52;;
54263;SDS011;40178;53.042;6.406;2023-01-24T06:56:21;18.55;;;9.32;;
54263;SDS011;40178;53.042;6.406;2023-01-24T06:58:46;19.08;;;8.77;;
54263;SDS011;40178;53.042;6.406;2023-01-24T07:01:12;18.02;;;8.63;;
54263;SDS011;40178;53.042;6.406;2023-01-24T07:03:38;17.42;;;8.55;;
54263;SDS011;40178;53.042;6.406;2023-01-24T07:06:04;19.63;;;8.70;;
54263;SDS011;40178;53.042;6.406;2023-01-24T07:08:29;19.95;;;8.98;;
54263;SDS011;40178;53.042;6.406;2023-01-24T07:10:57;20.00;;;10.18;;
54263;SDS011;40178;53.042;6.406;2023-01-24T07:13:23;19.80;;;8.82;;
54263;SDS011;40178;53.042;6.406;2023-01-24T07:15:49;18.75;;;9.07;;
54263;SDS011;40178;53.042;6.406;2023-01-24T07:18:15;17.80;;;8.30;;
54263;SDS011;40178;53.042;6.406;2023-01-24T07:20:42;17.17;;;8.32;;
54263;SDS011;40178;53.042;6.406;2023-01-24T07:23:26;16.60;;;8.18;;
54263;SDS011;40178;53.042;6.406;2023-01-24T07:25:57;17.17;;;7.88;;
54263;SDS011;40178;53.042;6.406;2023-01-24T07:28:24;18.88;;;8.05;;
54263;SDS011;40178;53.042;6.406;2023-01-24T07:30:51;18.67;;;8.13;;
54263;SDS011;40178;53.042;6.406;2023-01-24T07:33:17;19.95;;;8.77;;
54263;SDS011;40178;53.042;6.406;2023-01-24T07:35:43;17.95;;;8.77;;
54263;SDS011;40178;53.042;6.406;2023-01-24T07:38:09;16.88;;;7.97;;
54263;SDS011;40178;53.042;6.406;2023-01-24T07:40:36;20.27;;;8.77;;
54263;SDS011;40178;53.042;6.406;2023-01-24T07:43:03;15.70;;;7.88;;
54263;SDS011;40178;53.042;6.406;2023-01-24T07:45:29;15.35;;;7.65;;
54263;SDS011;40178;53.042;6.406;2023-01-24T07:47:57;16.25;;;7.40;;
54263;SDS011;40178;53.042;6.406;2023-01-24T07:50:24;16.60;;;7.50;;
54263;SDS011;40178;53.042;6.406;2023-01-24T07:52:51;15.07;;;7.72;;
54263;SDS011;40178;53.042;6.406;2023-01-24T07:55:17;14.38;;;7.30;;
54263;SDS011;40178;53.042;6.406;2023-01-24T07:57:44;16.40;;;7.60;;
54263;SDS011;40178;53.042;6.406;2023-01-24T08:00:10;18.15;;;7.68;;
54263;SDS011;40178;53.042;6.406;2023-01-24T08:02:36;15.95;;;7.50;;
54263;SDS011;40178;53.042;6.406;2023-01-24T08:05:01;15.77;;;7.47;;
54263;SDS011;40178;53.042;6.406;2023-01-24T08:07:27;17.40;;;7.28;;
54263;SDS011;40178;53.042;6.406;2023-01-24T08:09:52;20.90;;;9.50;;
54263;SDS011;40178;53.042;6.406;2023-01-24T08:12:18;17.50;;;7.82;;
54263;SDS011;40178;53.042;6.406;2023-01-24T08:14:44;16.42;;;7.85;;
54263;SDS011;40178;53.042;6.406;2023-01-24T08:17:09;14.18;;;7.50;;
54263;SDS011;40178;53.042;6.406;2023-01-24T08:19:35;16.60;;;7.75;;
54263;SDS011;40178;53.042;6.406;2023-01-24T08:22:01;15.50;;;7.82;;
54263;SDS011;40178;53.042;6.406;2023-01-24T08:24:27;15.02;;;6.88;;
54263;SDS011;40178;53.042;6.406;2023-01-24T08:26:53;15.90;;;7.10;;
54263;SDS011;40178;53.042;6.406;2023-01-24T08:29:19;14.98;;;7.32;;
54263;SDS011;40178;53.042;6.406;2023-01-24T08:31:44;16.83;;;7.40;;
54263;SDS011;40178;53.042;6.406;2023-01-24T08:34:10;16.25;;;7.20;;
54263;SDS011;40178;53.042;6.406;2023-01-24T08:36:36;14.50;;;7.20;;
54263;SDS011;40178;53.042;6.406;2023-01-24T08:39:01;15.73;;;6.95;;
54263;SDS011;40178;53.042;6.406;2023-01-24T08:41:29;16.50;;;6.85;;
54263;SDS011;40178;53.042;6.406;2023-01-24T08:43:54;15.73;;;7.00;;
54263;SDS011;40178;53.042;6.406;2023-01-24T08:46:20;13.98;;;6.68;;
54263;SDS011;40178;53.042;6.406;2023-01-24T08:48:46;16.80;;;8.02;;
54263;SDS011;40178;53.042;6.406;2023-01-24T08:51:11;14.70;;;7.10;;
54263;SDS011;40178;53.042;6.406;2023-01-24T08:53:37;14.82;;;6.65;;
54263;SDS011;40178;53.042;6.406;2023-01-24T08:56:03;17.98;;;7.85;;
54263;SDS011;40178;53.042;6.406;2023-01-24T08:58:28;16.60;;;8.07;;
54263;SDS011;40178;53.042;6.406;2023-01-24T09:00:54;16.98;;;7.90;;
54263;SDS011;40178;53.042;6.406;2023-01-24T09:03:20;18.13;;;7.85;;
54263;SDS011;40178;53.042;6.406;2023-01-24T09:05:45;14.05;;;7.15;;
54263;SDS011;40178;53.042;6.406;2023-01-24T09:08:11;15.77;;;7.38;;
54263;SDS011;40178;53.042;6.406;2023-01-24T09:10:37;14.38;;;7.82;;
54263;SDS011;40178;53.042;6.406;2023-01-24T09:13:03;16.63;;;7.50;;
54263;SDS011;40178;53.042;6.406;2023-01-24T09:15:29;16.70;;;7.03;;
54263;SDS011;40178;53.042;6.406;2023-01-24T09:17:55;15.80;;;7.82;;
54263;SDS011;40178;53.042;6.406;2023-01-24T09:20:24;14.63;;;6.90;;
54263;SDS011;40178;53.042;6.406;2023-01-24T09:22:50;17.05;;;7.97;;
54263;SDS011;40178;53.042;6.406;2023-01-24T09:25:16;20.35;;;8.15;;
54263;SDS011;40178;53.042;6.406;2023-01-24T09:27:41;13.35;;;6.82;;
54263;SDS011;40178;53.042;6.406;2023-01-24T09:30:07;17.48;;;8.00;;
54263;SDS011;40178;53.042;6.406;2023-01-24T09:32:34;15.23;;;7.13;;
54263;SDS011;40178;53.042;6.406;2023-01-24T09:35:00;16.77;;;7.75;;
54263;SDS011;40178;53.042;6.406;2023-01-24T09:37:26;16.42;;;7.13;;
54263;SDS011;40178;53.042;6.406;2023-01-24T09:39:52;16.50;;;7.70;;
54263;SDS011;40178;53.042;6.406;2023-01-24T09:47:55;16.88;;;7.85;;
54263;SDS011;40178;53.042;6.406;2023-01-24T09:50:23;15.13;;;7.38;;
54263;SDS011;40178;53.042;6.406;2023-01-24T09:52:55;16.40;;;7.95;;
54263;SDS011;40178;53.042;6.406;2023-01-24T09:55:25;16.60;;;7.18;;
54263;SDS011;40178;53.042;6.406;2023-01-24T10:00:30;15.63;;;7.20;;
54263;SDS011;40178;53.042;6.406;2023-01-24T10:02:59;15.18;;;7.40;;
54263;SDS011;40178;53.042;6.406;2023-01-24T10:05:34;17.58;;;7.70;;
54263;SDS011;40178;53.042;6.406;2023-01-24T10:19:08;16.80;;;7.88;;
54263;SDS011;40178;53.042;6.406;2023-01-24T10:24:38;16.27;;;7.93;;
54263;SDS011;40178;53.042;6.406;2023-01-24T10:27:25;15.65;;;7.40;;
54263;SDS011;40178;53.042;6.406;2023-01-24T10:32:43;16.45;;;7.78;;
54263;SDS011;40178;53.042;6.406;2023-01-24T10:35:17;15.55;;;7.95;;
54263;SDS011;40178;53.042;6.406;2023-01-24T10:37:48;15.63;;;7.38;;
54263;SDS011;40178;53.042;6.406;2023-01-24T10:40:21;16.15;;;8.02;;
54263;SDS011;40178;53.042;6.406;2023-01-24T10:42:49;15.73;;;7.70;;
54263;SDS011;40178;53.042;6.406;2023-01-24T10:48:01;15.68;;;7.53;;
54263;SDS011;40178;53.042;6.406;2023-01-24T10:50:42;17.00;;;7.60;;
54263;SDS011;40178;53.042;6.406;2023-01-24T10:56:04;20.55;;;8.18;;
54263;SDS011;40178;53.042;6.406;2023-01-24T10:58:53;15.98;;;7.70;;
54263;SDS011;40178;53.042;6.406;2023-01-24T11:01:22;15.93;;;7.55;;
54263;SDS011;40178;53.042;6.406;2023-01-24T11:03:55;13.77;;;7.18;;
54263;SDS011;40178;53.042;6.406;2023-01-24T11:09:04;14.88;;;7.60;;
54263;SDS011;40178;53.042;6.406;2023-01-24T11:11:44;15.65;;;6.88;;
54263;SDS011;40178;53.042;6.406;2023-01-24T11:14:21;17.40;;;8.20;;
54263;SDS011;40178;53.042;6.406;2023-01-24T11:16:51;15.40;;;7.28;;
54263;SDS011;40178;53.042;6.406;2023-01-24T11:21:57;19.02;;;8.27;;
54263;SDS011;40178;53.042;6.406;2023-01-24T11:24:25;16.83;;;7.47;;
54263;SDS011;40178;53.042;6.406;2023-01-24T11:27:01;16.75;;;7.93;;
54263;SDS011;40178;53.042;6.406;2023-01-24T11:29:38;15.82;;;7.97;;
54263;SDS011;40178;53.042;6.406;2023-01-24T11:56:46;14.50;;;7.47;;
54263;SDS011;40178;53.042;6.406;2023-01-24T12:05:01;16.58;;;7.60;;
54263;SDS011;40178;53.042;6.406;2023-01-24T12:15:53;15.48;;;7.82;;
54263;SDS011;40178;53.042;6.406;2023-01-24T12:18:43;17.08;;;8.43;;
54263;SDS011;40178;53.042;6.406;2023-01-24T12:21:18;17.30;;;7.20;;
54263;SDS011;40178;53.042;6.406;2023-01-24T12:26:44;14.27;;;6.97;;
54263;SDS011;40178;53.042;6.406;2023-01-24T12:29:21;16.98;;;7.30;;
54263;SDS011;40178;53.042;6.406;2023-01-24T12:31:56;14.73;;;7.50;;
54263;SDS011;40178;53.042;6.406;2023-01-24T12:34:35;14.95;;;7.15;;
54263;SDS011;40178;53.042;6.406;2023-01-24T12:40:00;14.82;;;7.10;;
54263;SDS011;40178;53.042;6.406;2023-01-24T12:45:29;14.90;;;7.57;;
54263;SDS011;40178;53.042;6.406;2023-01-24T12:48:18;16.63;;;7.45;;
54263;SDS011;40178;53.042;6.406;2023-01-24T12:50:52;14.32;;;7.18;;
54263;SDS011;40178;53.042;6.406;2023-01-24T12:59:07;13.60;;;7.47;;
54263;SDS011;40178;53.042;6.406;2023-01-24T13:01:38;16.50;;;7.18;;
54263;SDS011;40178;53.042;6.406;2023-01-24T13:09:42;13.88;;;6.65;;
54263;SDS011;40178;53.042;6.406;2023-01-24T13:12:14;17.73;;;7.75;;
54263;SDS011;40178;53.042;6.406;2023-01-24T13:14:55;14.15;;;6.97;;
54263;SDS011;40178;53.042;6.406;2023-01-24T13:17:31;16.50;;;8.23;;
54263;SDS011;40178;53.042;6.406;2023-01-24T13:31:37;15.50;;;7.30;;
54263;SDS011;40178;53.042;6.406;2023-01-24T13:34:21;16.23;;;7.93;;
54263;SDS011;40178;53.042;6.406;2023-01-24T13:36:53;16.85;;;7.60;;
54263;SDS011;40178;53.042;6.406;2023-01-24T13:39:58;15.65;;;7.18;;
54263;SDS011;40178;53.042;6.406;2023-01-24T13:44:37;16.83;;;7.88;;
54263;SDS011;40178;53.042;6.406;2023-01-24T13:47:19;15.90;;;8.20;;
54263;SDS011;40178;53.042;6.406;2023-01-24T13:55:02;14.38;;;7.53;;
54263;SDS011;40178;53.042;6.406;2023-01-24T14:00:49;18.63;;;8.02;;
54263;SDS011;40178;53.042;6.406;2023-01-24T14:03:38;16.45;;;7.43;;
54263;SDS011;40178;53.042;6.406;2023-01-24T14:18:47;14.90;;;7.63;;
54263;SDS011;40178;53.042;6.406;2023-01-24T14:21:30;15.35;;;8.00;;
54263;SDS011;40178;53.042;6.406;2023-01-24T14:26:53;15.77;;;7.10;;
54263;SDS011;40178;53.042;6.406;2023-01-24T14:29:22;15.80;;;7.78;;
54263;SDS011;40178;53.042;6.406;2023-01-24T14:32:00;16.48;;;7.10;;
54263;SDS011;40178;53.042;6.406;2023-01-24T14:34:38;15.43;;;7.72;;
54263;SDS011;40178;53.042;6.406;2023-01-24T14:37:11;17.88;;;7.97;;
54263;SDS011;40178;53.042;6.406;2023-01-24T14:39:41;14.38;;;7.53;;
54263;SDS011;40178;53.042;6.406;2023-01-24T14:42:10;16.08;;;7.60;;
54263;SDS011;40178;53.042;6.406;2023-01-24T14:44:43;15.10;;;6.97;;
54263;SDS011;40178;53.042;6.406;2023-01-24T14:47:23;16.30;;;8.15;;
54263;SDS011;40178;53.042;6.406;2023-01-24T14:49:57;15.45;;;8.05;;
54263;SDS011;40178;53.042;6.406;2023-01-24T14:52:25;18.33;;;8.48;;
54263;SDS011;40178;53.042;6.406;2023-01-24T14:54:53;15.10;;;7.63;;
54263;SDS011;40178;53.042;6.406;2023-01-24T14:57:27;15.38;;;7.68;;
54263;SDS011;40178;53.042;6.406;2023-01-24T15:07:56;17.27;;;7.88;;
54263;SDS011;40178;53.042;6.406;2023-01-24T15:10:27;16.30;;;7.70;;
54263;SDS011;40178;53.042;6.406;2023-01-24T15:15:25;14.60;;;8.15;;
54263;SDS011;40178;53.042;6.406;2023-01-24T15:17:54;16.95;;;7.68;;
54263;SDS011;40178;53.042;6.406;2023-01-24T15:20:46;15.75;;;7.03;;
54263;SDS011;40178;53.042;6.406;2023-01-24T15:23:13;17.95;;;8.60;;
54263;SDS011;40178;53.042;6.406;2023-01-24T15:25:44;16.88;;;8.15;;
54263;SDS011;40178;53.042;6.406;2023-01-24T15:28:26;18.60;;;8.93;;
54263;SDS011;40178;53.042;6.406;2023-01-24T15:30:54;20.88;;;9.13;;
54263;SDS011;40178;53.042;6.406;2023-01-24T15:33:20;16.55;;;8.07;;
54263;SDS011;40178;53.042;6.406;2023-01-24T15:35:47;17.05;;;8.88;;
54263;SDS011;40178;53.042;6.406;2023-01-24T15:41:01;15.98;;;7.57;;
54263;SDS011;40178;53.042;6.406;2023-01-24T15:43:29;15.77;;;7.97;;
54263;SDS011;40178;53.042;6.406;2023-01-24T15:46:22;15.95;;;8.20;;
54263;SDS011;40178;53.042;6.406;2023-01-24T15:49:17;17.20;;;8.55;;
54263;SDS011;40178;53.042;6.406;2023-01-24T15:54:41;17.40;;;8.65;;
54263;SDS011;40178;53.042;6.406;2023-01-24T15:59:57;16.60;;;8.27;;
54263;SDS011;40178;53.042;6.406;2023-01-24T16:02:26;17.40;;;8.23;;
54263;SDS011;40178;53.042;6.406;2023-01-24T16:04:52;19.05;;;8.40;;
54263;SDS011;40178;53.042;6.406;2023-01-24T16:07:18;18.48;;;8.55;;
54263;SDS011;40178;53.042;6.406;2023-01-24T16:09:48;19.20;;;8.75;;
54263;SDS011;40178;53.042;6.406;2023-01-24T16:12:15;17.92;;;9.38;;
54263;SDS011;40178;53.042;6.406;2023-01-24T16:14:50;18.33;;;8.95;;
54263;SDS011;40178;53.042;6.406;2023-01-24T16:17:18;25.00;;;10.93;;
54263;SDS011;40178;53.042;6.406;2023-01-24T16:19:46;18.45;;;9.65;;
54263;SDS011;40178;53.042;6.406;2023-01-24T16:22:12;19.02;;;9.40;;
54263;SDS011;40178;53.042;6.406;2023-01-24T16:24:37;17.38;;;8.68;;
54263;SDS011;40178;53.042;6.406;2023-01-24T16:27:03;19.85;;;9.38;;
54263;SDS011;40178;53.042;6.406;2023-01-24T16:29:29;17.73;;;9.23;;
54263;SDS011;40178;53.042;6.406;2023-01-24T16:31:56;17.13;;;8.93;;
54263;SDS011;40178;53.042;6.406;2023-01-24T16:34:22;16.70;;;9.10;;
54263;SDS011;40178;53.042;6.406;2023-01-24T16:36:48;20.27;;;9.63;;
54263;SDS011;40178;53.042;6.406;2023-01-24T16:39:14;19.20;;;10.10;;
54263;SDS011;40178;53.042;6.406;2023-01-24T16:41:43;18.63;;;9.98;;
54263;SDS011;40178;53.042;6.406;2023-01-24T16:44:09;17.75;;;9.50;;
54263;SDS011;40178;53.042;6.406;2023-01-24T16:46:36;17.65;;;9.25;;
54263;SDS011;40178;53.042;6.406;2023-01-24T16:49:01;18.45;;;9.13;;
54263;SDS011;40178;53.042;6.406;2023-01-24T16:51:27;18.58;;;9.73;;
54263;SDS011;40178;53.042;6.406;2023-01-24T16:53:53;18.83;;;9.60;;
54263;SDS011;40178;53.042;6.406;2023-01-24T16:56:22;18.90;;;10.05;;
54263;SDS011;40178;53.042;6.406;2023-01-24T16:58:53;19.60;;;9.98;;
54263;SDS011;40178;53.042;6.406;2023-01-24T17:01:20;17.30;;;10.02;;
54263;SDS011;40178;53.042;6.406;2023-01-24T17:03:45;19.17;;;9.77;;
54263;SDS011;40178;53.042;6.406;2023-01-24T17:06:15;16.77;;;9.52;;
54263;SDS011;40178;53.042;6.406;2023-01-24T17:08:41;21.08;;;10.57;;
54263;SDS011;40178;53.042;6.406;2023-01-24T17:11:07;20.30;;;10.35;;
54263;SDS011;40178;53.042;6.406;2023-01-24T17:13:35;16.90;;;9.45;;
54263;SDS011;40178;53.042;6.406;2023-01-24T17:16:08;19.77;;;10.07;;
54263;SDS011;40178;53.042;6.406;2023-01-24T17:18:35;20.17;;;10.20;;
54263;SDS011;40178;53.042;6.406;2023-01-24T17:21:03;17.27;;;9.38;;
54263;SDS011;40178;53.042;6.406;2023-01-24T17:23:34;21.20;;;9.88;;
54263;SDS011;40178;53.042;6.406;2023-01-24T17:26:09;18.60;;;10.18;;
54263;SDS011;40178;53.042;6.406;2023-01-24T17:28:39;19.52;;;9.77;;
54263;SDS011;40178;53.042;6.406;2023-01-24T17:31:07;19.38;;;9.75;;
54263;SDS011;40178;53.042;6.406;2023-01-24T17:33:34;19.83;;;10.05;;
54263;SDS011;40178;53.042;6.406;2023-01-24T17:36:00;20.25;;;11.00;;
54263;SDS011;40178;53.042;6.406;2023-01-24T17:38:26;21.60;;;11.27;;